Startpagina
METAR-TAF:

METAR-TAF

Vliegvelden :

Lichinga, Mozambique

breedte: 13-18S, lengte: 035-14E, hoogte: 1364 m

Actueel weer

Dit bericht is 7 uur en het 46 minuten geleden gemaakt, om 14:00 UTC
Wind 9 kt uit het zuidzuidoosten
Temperatuur 18°C
Vochtigheid 59%
Druk 1024 hPa
Zicht 10 km of meer
Gebroken wolken op 1500 ft

METAR: FQLC 201400Z 16009KT 9999 BKN015 18/10 Q1024

Tijdstip: 23:46 (21:46 UTC)

Verwachting

Dit bericht is 5 uur en het 46 minuten geleden gemaakt, om 16:00 UTC
Verwachting geldig van 20 om 18 UTC tot 21 om 18 UTC
Wind 13 kt uit het zuiden
Zicht 10 km of meer
Verspreide wolken op 1500 ft
Wijzigt naar
van 21 om 06 UTC tot 21 om 08 UTC
Wind 12 kt uit het oostzuidoosten
Weinig wolken op 2000 ft
Wijzigt naar
van 21 om 12 UTC tot 21 om 14 UTC
Wind 10 kt uit het zuidwesten

TAF: FQLC 201600Z 2018/2118 19013KT 9999 SCT015 TX20/2113Z TN10/2103Z BECMG 2106/2108 12012KT FEW020 BECMG 2112/2114 23010KT

Waarnemingen en weersverwachtingen van meer dan 4000 vliegvelden (METAR en TAF).

De beschikbare stations zijn de gele en rode punten op de kaart.

Ga met uw muis naar het station om de naam te zien.

Klik dan om waarnemingen en weersverwachtingen te zien.

kaart wijzigen: klik op de groene knoppen met een zwart kruis om in te zoomen, op de groene knop met een streepje om uit te zoomen of op de groene pijlen voor aangrenzende kaarten.


METAR-TAF: